sensor_id;sensor_type;location;lat;lon;timestamp;P1;durP1;ratioP1;P2;durP2;ratioP2
22388;SDS011;11362;48.102;11.620;2023-02-15T00:02:23;1.60;;;1.60;;
22388;SDS011;11362;48.102;11.620;2023-02-15T00:04:48;1.50;;;1.40;;
22388;SDS011;11362;48.102;11.620;2023-02-15T00:07:14;1.43;;;1.33;;
22388;SDS011;11362;48.102;11.620;2023-02-15T00:09:40;1.70;;;1.60;;
22388;SDS011;11362;48.102;11.620;2023-02-15T00:12:06;1.73;;;1.63;;
22388;SDS011;11362;48.102;11.620;2023-02-15T00:14:31;1.60;;;1.50;;
22388;SDS011;11362;48.102;11.620;2023-02-15T00:16:57;1.50;;;1.40;;
22388;SDS011;11362;48.102;11.620;2023-02-15T00:19:22;1.33;;;1.23;;
22388;SDS011;11362;48.102;11.620;2023-02-15T00:21:47;1.70;;;1.60;;
22388;SDS011;11362;48.102;11.620;2023-02-15T00:24:14;1.50;;;1.33;;
22388;SDS011;11362;48.102;11.620;2023-02-15T00:26:41;1.40;;;1.30;;
22388;SDS011;11362;48.102;11.620;2023-02-15T00:29:08;1.43;;;1.33;;
22388;SDS011;11362;48.102;11.620;2023-02-15T00:31:35;1.73;;;1.40;;
22388;SDS011;11362;48.102;11.620;2023-02-15T00:34:20;2.20;;;1.50;;
22388;SDS011;11362;48.102;11.620;2023-02-15T00:36:48;3.17;;;1.30;;
22388;SDS011;11362;48.102;11.620;2023-02-15T00:39:13;2.20;;;1.50;;
22388;SDS011;11362;48.102;11.620;2023-02-15T00:41:40;1.27;;;1.27;;
22388;SDS011;11362;48.102;11.620;2023-02-15T00:44:06;1.80;;;1.33;;
22388;SDS011;11362;48.102;11.620;2023-02-15T00:46:32;1.70;;;1.60;;
22388;SDS011;11362;48.102;11.620;2023-02-15T00:48:57;2.23;;;1.30;;
22388;SDS011;11362;48.102;11.620;2023-02-15T00:51:23;1.50;;;1.47;;
22388;SDS011;11362;48.102;11.620;2023-02-15T00:53:49;1.70;;;1.60;;
22388;SDS011;11362;48.102;11.620;2023-02-15T00:56:14;1.67;;;1.17;;
22388;SDS011;11362;48.102;11.620;2023-02-15T00:58:40;1.90;;;1.43;;
22388;SDS011;11362;48.102;11.620;2023-02-15T01:01:06;1.80;;;1.70;;
22388;SDS011;11362;48.102;11.620;2023-02-15T01:03:36;1.30;;;1.20;;
22388;SDS011;11362;48.102;11.620;2023-02-15T01:06:02;1.70;;;1.60;;
22388;SDS011;11362;48.102;11.620;2023-02-15T01:08:28;1.20;;;1.20;;
22388;SDS011;11362;48.102;11.620;2023-02-15T01:10:54;1.40;;;1.30;;
22388;SDS011;11362;48.102;11.620;2023-02-15T01:13:19;1.37;;;1.30;;
22388;SDS011;11362;48.102;11.620;2023-02-15T01:15:45;1.70;;;1.37;;
22388;SDS011;11362;48.102;11.620;2023-02-15T01:18:11;1.30;;;1.20;;
22388;SDS011;11362;48.102;11.620;2023-02-15T01:20:37;1.40;;;1.30;;
22388;SDS011;11362;48.102;11.620;2023-02-15T01:23:04;1.37;;;1.37;;
22388;SDS011;11362;48.102;11.620;2023-02-15T01:25:32;1.70;;;1.40;;
22388;SDS011;11362;48.102;11.620;2023-02-15T01:27:58;1.20;;;1.10;;
22388;SDS011;11362;48.102;11.620;2023-02-15T01:30:23;1.50;;;1.40;;
22388;SDS011;11362;48.102;11.620;2023-02-15T01:32:49;1.60;;;1.50;;
22388;SDS011;11362;48.102;11.620;2023-02-15T01:35:14;1.40;;;1.30;;
22388;SDS011;11362;48.102;11.620;2023-02-15T01:37:39;1.10;;;1.10;;
22388;SDS011;11362;48.102;11.620;2023-02-15T01:40:06;1.70;;;1.60;;
22388;SDS011;11362;48.102;11.620;2023-02-15T01:42:33;1.30;;;1.20;;
22388;SDS011;11362;48.102;11.620;2023-02-15T01:44:59;1.20;;;1.20;;
22388;SDS011;11362;48.102;11.620;2023-02-15T01:47:44;1.30;;;1.20;;
22388;SDS011;11362;48.102;11.620;2023-02-15T01:55:46;1.47;;;1.37;;
22388;SDS011;11362;48.102;11.620;2023-02-15T01:58:14;1.17;;;1.17;;
22388;SDS011;11362;48.102;11.620;2023-02-15T02:00:39;1.20;;;1.20;;
22388;SDS011;11362;48.102;11.620;2023-02-15T02:03:05;1.30;;;1.30;;
22388;SDS011;11362;48.102;11.620;2023-02-15T02:05:31;1.40;;;1.13;;
22388;SDS011;11362;48.102;11.620;2023-02-15T02:07:58;2.03;;;1.40;;
22388;SDS011;11362;48.102;11.620;2023-02-15T02:10:25;1.27;;;1.27;;
22388;SDS011;11362;48.102;11.620;2023-02-15T02:12:52;1.10;;;1.10;;
22388;SDS011;11362;48.102;11.620;2023-02-15T02:16:15;1.30;;;1.30;;
22388;SDS011;11362;48.102;11.620;2023-02-15T02:35:37;1.90;;;1.30;;
22388;SDS011;11362;48.102;11.620;2023-02-15T02:41:42;1.17;;;1.17;;
22388;SDS011;11362;48.102;11.620;2023-02-15T02:47:30;1.20;;;1.20;;
22388;SDS011;11362;48.102;11.620;2023-02-15T02:50:21;1.00;;;1.00;;
22388;SDS011;11362;48.102;11.620;2023-02-15T02:52:51;1.40;;;1.30;;
22388;SDS011;11362;48.102;11.620;2023-02-15T02:55:22;1.30;;;1.30;;
22388;SDS011;11362;48.102;11.620;2023-02-15T02:58:37;1.23;;;1.23;;
22388;SDS011;11362;48.102;11.620;2023-02-15T03:00:48;1.33;;;1.33;;
22388;SDS011;11362;48.102;11.620;2023-02-15T03:03:18;0.97;;;0.97;;
22388;SDS011;11362;48.102;11.620;2023-02-15T03:05:50;1.27;;;1.27;;
22388;SDS011;11362;48.102;11.620;2023-02-15T03:08:18;1.30;;;1.30;;
22388;SDS011;11362;48.102;11.620;2023-02-15T03:10:47;1.30;;;1.30;;
22388;SDS011;11362;48.102;11.620;2023-02-15T03:13:15;1.50;;;1.40;;
22388;SDS011;11362;48.102;11.620;2023-02-15T03:15:41;1.47;;;1.47;;
22388;SDS011;11362;48.102;11.620;2023-02-15T03:18:08;1.20;;;1.20;;
22388;SDS011;11362;48.102;11.620;2023-02-15T03:20:35;1.23;;;1.23;;
22388;SDS011;11362;48.102;11.620;2023-02-15T03:23:16;0.90;;;0.90;;
22388;SDS011;11362;48.102;11.620;2023-02-15T03:25:49;1.17;;;1.07;;
22388;SDS011;11362;48.102;11.620;2023-02-15T03:28:18;1.20;;;1.20;;
22388;SDS011;11362;48.102;11.620;2023-02-15T03:30:48;1.10;;;1.10;;
22388;SDS011;11362;48.102;11.620;2023-02-15T03:33:18;1.13;;;1.13;;
22388;SDS011;11362;48.102;11.620;2023-02-15T03:36:08;1.03;;;1.03;;
22388;SDS011;11362;48.102;11.620;2023-02-15T03:41:32;1.20;;;1.10;;
22388;SDS011;11362;48.102;11.620;2023-02-15T03:44:06;1.10;;;1.10;;
22388;SDS011;11362;48.102;11.620;2023-02-15T03:46:43;1.30;;;1.30;;
22388;SDS011;11362;48.102;11.620;2023-02-15T03:49:24;1.30;;;1.30;;
22388;SDS011;11362;48.102;11.620;2023-02-15T03:51:54;1.10;;;1.10;;
22388;SDS011;11362;48.102;11.620;2023-02-15T03:54:24;1.40;;;1.30;;
22388;SDS011;11362;48.102;11.620;2023-02-15T03:56:51;1.00;;;1.00;;
22388;SDS011;11362;48.102;11.620;2023-02-15T03:59:19;1.03;;;1.03;;
22388;SDS011;11362;48.102;11.620;2023-02-15T04:02:04;1.00;;;1.00;;
22388;SDS011;11362;48.102;11.620;2023-02-15T04:04:35;1.00;;;1.00;;
22388;SDS011;11362;48.102;11.620;2023-02-15T04:07:04;1.17;;;1.17;;
22388;SDS011;11362;48.102;11.620;2023-02-15T04:09:31;1.13;;;1.13;;
22388;SDS011;11362;48.102;11.620;2023-02-15T04:11:57;1.00;;;1.00;;
22388;SDS011;11362;48.102;11.620;2023-02-15T04:14:22;1.40;;;1.40;;
22388;SDS011;11362;48.102;11.620;2023-02-15T04:16:47;1.23;;;1.23;;
22388;SDS011;11362;48.102;11.620;2023-02-15T04:19:13;1.20;;;1.20;;
22388;SDS011;11362;48.102;11.620;2023-02-15T04:21:38;1.10;;;1.10;;
22388;SDS011;11362;48.102;11.620;2023-02-15T04:24:04;1.10;;;1.10;;
22388;SDS011;11362;48.102;11.620;2023-02-15T04:26:29;0.80;;;0.80;;
22388;SDS011;11362;48.102;11.620;2023-02-15T04:28:55;1.10;;;1.10;;
22388;SDS011;11362;48.102;11.620;2023-02-15T04:31:20;1.07;;;1.07;;
22388;SDS011;11362;48.102;11.620;2023-02-15T04:33:45;1.87;;;1.57;;
22388;SDS011;11362;48.102;11.620;2023-02-15T04:36:10;1.13;;;1.13;;
22388;SDS011;11362;48.102;11.620;2023-02-15T04:38:36;1.20;;;1.20;;
22388;SDS011;11362;48.102;11.620;2023-02-15T04:41:01;1.20;;;1.20;;
22388;SDS011;11362;48.102;11.620;2023-02-15T04:43:26;1.20;;;1.20;;
22388;SDS011;11362;48.102;11.620;2023-02-15T04:45:51;1.30;;;1.30;;
22388;SDS011;11362;48.102;11.620;2023-02-15T04:48:17;1.50;;;1.40;;
22388;SDS011;11362;48.102;11.620;2023-02-15T04:50:43;1.50;;;1.50;;
22388;SDS011;11362;48.102;11.620;2023-02-15T04:53:09;1.20;;;1.20;;
22388;SDS011;11362;48.102;11.620;2023-02-15T04:55:35;1.10;;;1.10;;
22388;SDS011;11362;48.102;11.620;2023-02-15T04:58:01;1.30;;;1.30;;
22388;SDS011;11362;48.102;11.620;2023-02-15T05:00:26;1.20;;;1.20;;
22388;SDS011;11362;48.102;11.620;2023-02-15T05:02:51;1.47;;;1.40;;
22388;SDS011;11362;48.102;11.620;2023-02-15T05:05:16;1.00;;;1.00;;
22388;SDS011;11362;48.102;11.620;2023-02-15T05:07:42;1.10;;;1.10;;
22388;SDS011;11362;48.102;11.620;2023-02-15T05:10:07;1.10;;;1.10;;
22388;SDS011;11362;48.102;11.620;2023-02-15T05:12:33;1.40;;;1.40;;
22388;SDS011;11362;48.102;11.620;2023-02-15T05:14:58;1.10;;;1.10;;
22388;SDS011;11362;48.102;11.620;2023-02-15T05:17:23;1.27;;;1.27;;
22388;SDS011;11362;48.102;11.620;2023-02-15T05:19:49;1.20;;;1.20;;
22388;SDS011;11362;48.102;11.620;2023-02-15T05:22:14;1.30;;;1.30;;
22388;SDS011;11362;48.102;11.620;2023-02-15T05:24:39;1.40;;;1.03;;
22388;SDS011;11362;48.102;11.620;2023-02-15T05:27:05;1.30;;;1.30;;
22388;SDS011;11362;48.102;11.620;2023-02-15T05:29:30;1.20;;;1.20;;
22388;SDS011;11362;48.102;11.620;2023-02-15T05:31:56;1.10;;;1.10;;
22388;SDS011;11362;48.102;11.620;2023-02-15T05:34:21;1.20;;;1.20;;
22388;SDS011;11362;48.102;11.620;2023-02-15T05:36:46;1.27;;;1.27;;
22388;SDS011;11362;48.102;11.620;2023-02-15T05:39:12;1.33;;;1.33;;
22388;SDS011;11362;48.102;11.620;2023-02-15T05:41:37;1.17;;;1.17;;
22388;SDS011;11362;48.102;11.620;2023-02-15T05:44:02;1.20;;;1.20;;
22388;SDS011;11362;48.102;11.620;2023-02-15T05:46:28;1.40;;;1.40;;
22388;SDS011;11362;48.102;11.620;2023-02-15T05:48:53;1.20;;;1.20;;
22388;SDS011;11362;48.102;11.620;2023-02-15T05:51:18;1.43;;;1.43;;
22388;SDS011;11362;48.102;11.620;2023-02-15T05:53:43;1.47;;;1.37;;
22388;SDS011;11362;48.102;11.620;2023-02-15T05:56:09;1.83;;;1.67;;
22388;SDS011;11362;48.102;11.620;2023-02-15T05:58:39;2.63;;;1.57;;
22388;SDS011;11362;48.102;11.620;2023-02-15T06:01:09;1.50;;;1.40;;
22388;SDS011;11362;48.102;11.620;2023-02-15T06:03:42;1.77;;;1.67;;
22388;SDS011;11362;48.102;11.620;2023-02-15T06:06:08;4.73;;;1.70;;
22388;SDS011;11362;48.102;11.620;2023-02-15T06:08:34;4.10;;;1.87;;
22388;SDS011;11362;48.102;11.620;2023-02-15T06:11:01;1.70;;;1.57;;
22388;SDS011;11362;48.102;11.620;2023-02-15T06:13:26;7.70;;;1.93;;
22388;SDS011;11362;48.102;11.620;2023-02-15T06:15:52;10.10;;;2.57;;
22388;SDS011;11362;48.102;11.620;2023-02-15T06:18:17;7.47;;;2.10;;
22388;SDS011;11362;48.102;11.620;2023-02-15T06:20:45;8.13;;;2.10;;
22388;SDS011;11362;48.102;11.620;2023-02-15T06:23:10;8.93;;;2.10;;
22388;SDS011;11362;48.102;11.620;2023-02-15T06:25:36;9.93;;;2.50;;
22388;SDS011;11362;48.102;11.620;2023-02-15T06:28:01;4.07;;;1.87;;
22388;SDS011;11362;48.102;11.620;2023-02-15T06:30:26;10.53;;;2.80;;
22388;SDS011;11362;48.102;11.620;2023-02-15T06:32:52;5.07;;;2.33;;
22388;SDS011;11362;48.102;11.620;2023-02-15T06:35:17;3.70;;;2.17;;
22388;SDS011;11362;48.102;11.620;2023-02-15T06:37:42;7.27;;;2.37;;
22388;SDS011;11362;48.102;11.620;2023-02-15T06:40:10;9.73;;;2.73;;
22388;SDS011;11362;48.102;11.620;2023-02-15T06:42:36;9.03;;;2.33;;
22388;SDS011;11362;48.102;11.620;2023-02-15T06:45:01;6.53;;;2.13;;
22388;SDS011;11362;48.102;11.620;2023-02-15T06:47:26;5.10;;;2.10;;
22388;SDS011;11362;48.102;11.620;2023-02-15T06:49:52;7.50;;;2.10;;
22388;SDS011;11362;48.102;11.620;2023-02-15T06:52:17;5.90;;;2.30;;
22388;SDS011;11362;48.102;11.620;2023-02-15T06:54:42;3.73;;;1.90;;
22388;SDS011;11362;48.102;11.620;2023-02-15T06:57:07;6.97;;;2.67;;
22388;SDS011;11362;48.102;11.620;2023-02-15T06:59:33;10.40;;;2.30;;
22388;SDS011;11362;48.102;11.620;2023-02-15T07:01:58;5.23;;;2.10;;
22388;SDS011;11362;48.102;11.620;2023-02-15T07:04:23;3.37;;;2.33;;
22388;SDS011;11362;48.102;11.620;2023-02-15T07:06:48;2.07;;;1.60;;
22388;SDS011;11362;48.102;11.620;2023-02-15T07:09:14;3.70;;;1.93;;
22388;SDS011;11362;48.102;11.620;2023-02-15T07:11:39;4.83;;;1.90;;
22388;SDS011;11362;48.102;11.620;2023-02-15T07:14:04;4.40;;;2.70;;
22388;SDS011;11362;48.102;11.620;2023-02-15T07:16:29;2.97;;;2.20;;
22388;SDS011;11362;48.102;11.620;2023-02-15T07:18:55;6.20;;;2.67;;
22388;SDS011;11362;48.102;11.620;2023-02-15T07:21:20;5.73;;;2.53;;
22388;SDS011;11362;48.102;11.620;2023-02-15T07:23:45;5.13;;;2.90;;
22388;SDS011;11362;48.102;11.620;2023-02-15T07:26:11;7.43;;;6.83;;
22388;SDS011;11362;48.102;11.620;2023-02-15T07:28:36;6.87;;;6.37;;
22388;SDS011;11362;48.102;11.620;2023-02-15T07:31:02;6.43;;;5.93;;
22388;SDS011;11362;48.102;11.620;2023-02-15T07:33:30;6.13;;;5.63;;
22388;SDS011;11362;48.102;11.620;2023-02-15T07:35:56;5.17;;;4.73;;
22388;SDS011;11362;48.102;11.620;2023-02-15T07:38:24;5.80;;;5.07;;
22388;SDS011;11362;48.102;11.620;2023-02-15T07:40:50;4.63;;;4.23;;
22388;SDS011;11362;48.102;11.620;2023-02-15T07:43:15;3.90;;;3.70;;
22388;SDS011;11362;48.102;11.620;2023-02-15T07:45:41;3.90;;;3.60;;
22388;SDS011;11362;48.102;11.620;2023-02-15T07:48:06;4.20;;;3.43;;
22388;SDS011;11362;48.102;11.620;2023-02-15T07:50:32;5.40;;;3.40;;
22388;SDS011;11362;48.102;11.620;2023-02-15T07:52:57;4.00;;;3.70;;
22388;SDS011;11362;48.102;11.620;2023-02-15T07:55:23;3.73;;;3.33;;
22388;SDS011;11362;48.102;11.620;2023-02-15T07:57:49;4.67;;;3.80;;
22388;SDS011;11362;48.102;11.620;2023-02-15T08:00:16;3.77;;;3.43;;
22388;SDS011;11362;48.102;11.620;2023-02-15T08:02:49;3.83;;;3.43;;
22388;SDS011;11362;48.102;11.620;2023-02-15T08:05:15;4.40;;;3.60;;
22388;SDS011;11362;48.102;11.620;2023-02-15T08:07:40;4.13;;;3.73;;
22388;SDS011;11362;48.102;11.620;2023-02-15T08:10:06;4.57;;;3.20;;
22388;SDS011;11362;48.102;11.620;2023-02-15T08:12:31;3.23;;;2.93;;
22388;SDS011;11362;48.102;11.620;2023-02-15T08:14:56;3.37;;;3.10;;
22388;SDS011;11362;48.102;11.620;2023-02-15T08:17:22;3.90;;;3.30;;
22388;SDS011;11362;48.102;11.620;2023-02-15T08:19:47;3.27;;;2.93;;
22388;SDS011;11362;48.102;11.620;2023-02-15T08:22:13;3.10;;;2.90;;
22388;SDS011;11362;48.102;11.620;2023-02-15T08:24:39;2.87;;;2.77;;
22388;SDS011;11362;48.102;11.620;2023-02-15T08:27:06;3.20;;;3.00;;
22388;SDS011;11362;48.102;11.620;2023-02-15T08:29:33;2.90;;;2.70;;
22388;SDS011;11362;48.102;11.620;2023-02-15T08:32:01;3.47;;;3.17;;
22388;SDS011;11362;48.102;11.620;2023-02-15T08:34:29;3.23;;;2.90;;
22388;SDS011;11362;48.102;11.620;2023-02-15T08:36:56;2.83;;;2.60;;
22388;SDS011;11362;48.102;11.620;2023-02-15T08:39:22;3.07;;;2.80;;
22388;SDS011;11362;48.102;11.620;2023-02-15T08:41:48;4.13;;;3.10;;
22388;SDS011;11362;48.102;11.620;2023-02-15T08:44:14;5.73;;;2.60;;
22388;SDS011;11362;48.102;11.620;2023-02-15T08:46:42;3.47;;;3.27;;
22388;SDS011;11362;48.102;11.620;2023-02-15T08:49:09;3.30;;;3.07;;
22388;SDS011;11362;48.102;11.620;2023-02-15T08:51:37;3.17;;;2.93;;
22388;SDS011;11362;48.102;11.620;2023-02-15T08:54:04;3.30;;;3.00;;
22388;SDS011;11362;48.102;11.620;2023-02-15T08:56:32;2.90;;;2.57;;
22388;SDS011;11362;48.102;11.620;2023-02-15T08:58:59;3.40;;;3.10;;
22388;SDS011;11362;48.102;11.620;2023-02-15T09:01:26;3.17;;;2.83;;
22388;SDS011;11362;48.102;11.620;2023-02-15T09:03:56;3.97;;;3.23;;
22388;SDS011;11362;48.102;11.620;2023-02-15T09:06:24;2.90;;;2.63;;
22388;SDS011;11362;48.102;11.620;2023-02-15T09:08:49;3.63;;;2.57;;
22388;SDS011;11362;48.102;11.620;2023-02-15T09:11:16;6.33;;;3.43;;
22388;SDS011;11362;48.102;11.620;2023-02-15T09:13:46;2.93;;;2.73;;
22388;SDS011;11362;48.102;11.620;2023-02-15T09:16:11;3.43;;;2.47;;
22388;SDS011;11362;48.102;11.620;2023-02-15T09:18:37;3.33;;;3.03;;
22388;SDS011;11362;48.102;11.620;2023-02-15T09:21:04;3.20;;;2.90;;
22388;SDS011;11362;48.102;11.620;2023-02-15T09:23:31;4.00;;;2.40;;
22388;SDS011;11362;48.102;11.620;2023-02-15T09:25:56;3.40;;;2.90;;
22388;SDS011;11362;48.102;11.620;2023-02-15T09:28:21;4.93;;;2.40;;
22388;SDS011;11362;48.102;11.620;2023-02-15T09:30:46;3.00;;;2.80;;
22388;SDS011;11362;48.102;11.620;2023-02-15T09:33:12;4.67;;;2.60;;
22388;SDS011;11362;48.102;11.620;2023-02-15T09:35:37;7.40;;;2.80;;
22388;SDS011;11362;48.102;11.620;2023-02-15T09:38:02;4.37;;;2.77;;
22388;SDS011;11362;48.102;11.620;2023-02-15T09:40:28;2.80;;;2.60;;
22388;SDS011;11362;48.102;11.620;2023-02-15T09:43:07;2.70;;;2.50;;
22388;SDS011;11362;48.102;11.620;2023-02-15T09:45:48;3.13;;;2.93;;
22388;SDS011;11362;48.102;11.620;2023-02-15T09:48:29;3.47;;;3.17;;
22388;SDS011;11362;48.102;11.620;2023-02-15T09:51:19;2.70;;;2.50;;
22388;SDS011;11362;48.102;11.620;2023-02-15T09:54:14;3.73;;;2.47;;
22388;SDS011;11362;48.102;11.620;2023-02-15T09:56:50;4.77;;;3.03;;
22388;SDS011;11362;48.102;11.620;2023-02-15T09:59:33;3.00;;;2.70;;
22388;SDS011;11362;48.102;11.620;2023-02-15T10:07:58;3.43;;;2.50;;
22388;SDS011;11362;48.102;11.620;2023-02-15T10:13:37;3.70;;;2.70;;
22388;SDS011;11362;48.102;11.620;2023-02-15T10:16:17;3.20;;;2.10;;
22388;SDS011;11362;48.102;11.620;2023-02-15T10:22:15;4.57;;;3.33;;
22388;SDS011;11362;48.102;11.620;2023-02-15T10:25:03;3.93;;;3.53;;
22388;SDS011;11362;48.102;11.620;2023-02-15T10:27:41;4.03;;;3.60;;
22388;SDS011;11362;48.102;11.620;2023-02-15T10:30:12;5.80;;;3.90;;
22388;SDS011;11362;48.102;11.620;2023-02-15T10:32:41;4.27;;;3.83;;
22388;SDS011;11362;48.102;11.620;2023-02-15T10:46:11;11.37;;;4.70;;
22388;SDS011;11362;48.102;11.620;2023-02-15T10:54:41;3.50;;;3.20;;
22388;SDS011;11362;48.102;11.620;2023-02-15T11:07:55;3.77;;;3.47;;
22388;SDS011;11362;48.102;11.620;2023-02-15T11:10:29;6.60;;;3.03;;
22388;SDS011;11362;48.102;11.620;2023-02-15T11:12:57;3.93;;;2.70;;
22388;SDS011;11362;48.102;11.620;2023-02-15T11:15:36;5.43;;;2.70;;
22388;SDS011;11362;48.102;11.620;2023-02-15T11:18:53;4.50;;;3.20;;
22388;SDS011;11362;48.102;11.620;2023-02-15T11:22:02;7.33;;;3.43;;
22388;SDS011;11362;48.102;11.620;2023-02-15T11:24:07;3.33;;;2.63;;
22388;SDS011;11362;48.102;11.620;2023-02-15T11:26:46;3.67;;;2.73;;
22388;SDS011;11362;48.102;11.620;2023-02-15T11:29:23;5.63;;;2.70;;
22388;SDS011;11362;48.102;11.620;2023-02-15T11:31:54;3.93;;;2.57;;
22388;SDS011;11362;48.102;11.620;2023-02-15T11:36:54;3.20;;;2.90;;
22388;SDS011;11362;48.102;11.620;2023-02-15T11:39:24;3.93;;;2.53;;
22388;SDS011;11362;48.102;11.620;2023-02-15T11:41:52;4.40;;;2.83;;
22388;SDS011;11362;48.102;11.620;2023-02-15T11:44:22;5.00;;;2.77;;
22388;SDS011;11362;48.102;11.620;2023-02-15T11:46:51;7.30;;;2.40;;
22388;SDS011;11362;48.102;11.620;2023-02-15T11:51:51;2.60;;;2.40;;
22388;SDS011;11362;48.102;11.620;2023-02-15T11:54:26;3.43;;;2.67;;
22388;SDS011;11362;48.102;11.620;2023-02-15T11:56:55;3.50;;;2.67;;
22388;SDS011;11362;48.102;11.620;2023-02-15T11:59:31;4.10;;;3.00;;
22388;SDS011;11362;48.102;11.620;2023-02-15T12:02:00;3.20;;;2.50;;
22388;SDS011;11362;48.102;11.620;2023-02-15T12:04:30;5.03;;;2.80;;
22388;SDS011;11362;48.102;11.620;2023-02-15T12:07:02;3.00;;;2.70;;
22388;SDS011;11362;48.102;11.620;2023-02-15T12:09:40;4.33;;;2.90;;
22388;SDS011;11362;48.102;11.620;2023-02-15T12:12:20;3.67;;;2.70;;
22388;SDS011;11362;48.102;11.620;2023-02-15T12:14:54;4.57;;;3.10;;
22388;SDS011;11362;48.102;11.620;2023-02-15T12:17:22;5.63;;;2.87;;
22388;SDS011;11362;48.102;11.620;2023-02-15T12:19:49;3.27;;;2.57;;
22388;SDS011;11362;48.102;11.620;2023-02-15T12:22:24;2.60;;;2.40;;
22388;SDS011;11362;48.102;11.620;2023-02-15T12:24:53;2.23;;;2.00;;
22388;SDS011;11362;48.102;11.620;2023-02-15T12:27:24;3.67;;;2.20;;
22388;SDS011;11362;48.102;11.620;2023-02-15T12:29:55;2.80;;;2.60;;
22388;SDS011;11362;48.102;11.620;2023-02-15T12:32:27;4.63;;;2.60;;
22388;SDS011;11362;48.102;11.620;2023-02-15T12:34:59;5.43;;;2.30;;
22388;SDS011;11362;48.102;11.620;2023-02-15T12:37:28;4.50;;;2.80;;
22388;SDS011;11362;48.102;11.620;2023-02-15T12:39:57;2.50;;;2.40;;
22388;SDS011;11362;48.102;11.620;2023-02-15T12:42:24;2.83;;;2.63;;
22388;SDS011;11362;48.102;11.620;2023-02-15T12:45:03;3.37;;;2.80;;
22388;SDS011;11362;48.102;11.620;2023-02-15T12:47:45;3.30;;;2.70;;
22388;SDS011;11362;48.102;11.620;2023-02-15T12:50:13;3.07;;;2.77;;
22388;SDS011;11362;48.102;11.620;2023-02-15T12:52:47;2.60;;;2.40;;
22388;SDS011;11362;48.102;11.620;2023-02-15T12:57:46;5.30;;;2.83;;
22388;SDS011;11362;48.102;11.620;2023-02-15T13:02:47;3.50;;;2.23;;
22388;SDS011;11362;48.102;11.620;2023-02-15T13:07:50;2.73;;;2.53;;
22388;SDS011;11362;48.102;11.620;2023-02-15T13:10:29;2.70;;;2.50;;
22388;SDS011;11362;48.102;11.620;2023-02-15T13:12:58;3.07;;;2.20;;
22388;SDS011;11362;48.102;11.620;2023-02-15T13:17:59;3.93;;;2.70;;
22388;SDS011;11362;48.102;11.620;2023-02-15T13:20:26;3.37;;;2.50;;
22388;SDS011;11362;48.102;11.620;2023-02-15T13:22:55;4.20;;;2.67;;
22388;SDS011;11362;48.102;11.620;2023-02-15T13:25:25;3.10;;;2.67;;
22388;SDS011;11362;48.102;11.620;2023-02-15T13:27:56;3.40;;;2.80;;
22388;SDS011;11362;48.102;11.620;2023-02-15T13:30:32;3.63;;;2.57;;
22388;SDS011;11362;48.102;11.620;2023-02-15T13:33:03;3.40;;;2.47;;
22388;SDS011;11362;48.102;11.620;2023-02-15T13:35:37;7.60;;;3.03;;
22388;SDS011;11362;48.102;11.620;2023-02-15T13:38:11;2.50;;;2.30;;
22388;SDS011;11362;48.102;11.620;2023-02-15T13:40:48;4.07;;;2.43;;
22388;SDS011;11362;48.102;11.620;2023-02-15T13:46:01;3.00;;;2.80;;
22388;SDS011;11362;48.102;11.620;2023-02-15T13:51:46;3.63;;;2.60;;
22388;SDS011;11362;48.102;11.620;2023-02-15T13:54:33;3.00;;;2.27;;
22388;SDS011;11362;48.102;11.620;2023-02-15T13:57:16;2.10;;;2.00;;
22388;SDS011;11362;48.102;11.620;2023-02-15T13:59:54;4.80;;;2.30;;
22388;SDS011;11362;48.102;11.620;2023-02-15T14:08:17;5.23;;;2.30;;
22388;SDS011;11362;48.102;11.620;2023-02-15T14:13:57;3.33;;;2.40;;
22388;SDS011;11362;48.102;11.620;2023-02-15T14:16:32;6.00;;;2.83;;
22388;SDS011;11362;48.102;11.620;2023-02-15T14:22:12;2.63;;;2.30;;
22388;SDS011;11362;48.102;11.620;2023-02-15T14:24:58;3.33;;;2.60;;
22388;SDS011;11362;48.102;11.620;2023-02-15T14:30:30;3.63;;;2.17;;
22388;SDS011;11362;48.102;11.620;2023-02-15T14:33:06;4.50;;;2.57;;
22388;SDS011;11362;48.102;11.620;2023-02-15T14:35:33;1.97;;;1.87;;
22388;SDS011;11362;48.102;11.620;2023-02-15T14:40:57;3.43;;;2.23;;
22388;SDS011;11362;48.102;11.620;2023-02-15T14:43:38;4.80;;;2.47;;
22388;SDS011;11362;48.102;11.620;2023-02-15T14:46:29;5.27;;;2.33;;
22388;SDS011;11362;48.102;11.620;2023-02-15T14:54:08;2.97;;;2.30;;
22388;SDS011;11362;48.102;11.620;2023-02-15T14:56:35;2.33;;;2.23;;
22388;SDS011;11362;48.102;11.620;2023-02-15T14:59:12;5.63;;;2.23;;
22388;SDS011;11362;48.102;11.620;2023-02-15T15:01:39;5.70;;;2.27;;
22388;SDS011;11362;48.102;11.620;2023-02-15T15:04:06;2.30;;;2.10;;
22388;SDS011;11362;48.102;11.620;2023-02-15T15:06:34;4.50;;;2.27;;
22388;SDS011;11362;48.102;11.620;2023-02-15T15:12:15;2.43;;;2.20;;
22388;SDS011;11362;48.102;11.620;2023-02-15T15:14:42;2.43;;;2.20;;
22388;SDS011;11362;48.102;11.620;2023-02-15T15:17:12;2.20;;;2.03;;
22388;SDS011;11362;48.102;11.620;2023-02-15T15:19:59;3.80;;;1.97;;
22388;SDS011;11362;48.102;11.620;2023-02-15T15:22:27;2.57;;;2.30;;
22388;SDS011;11362;48.102;11.620;2023-02-15T15:24:55;2.00;;;1.80;;
22388;SDS011;11362;48.102;11.620;2023-02-15T15:32:45;2.23;;;2.03;;
22388;SDS011;11362;48.102;11.620;2023-02-15T15:35:23;2.30;;;2.10;;
22388;SDS011;11362;48.102;11.620;2023-02-15T15:40:41;2.73;;;2.37;;
22388;SDS011;11362;48.102;11.620;2023-02-15T15:46:12;2.23;;;1.83;;
22388;SDS011;11362;48.102;11.620;2023-02-15T15:48:49;2.33;;;2.23;;
22388;SDS011;11362;48.102;11.620;2023-02-15T15:53:47;2.30;;;2.10;;
22388;SDS011;11362;48.102;11.620;2023-02-15T15:56:17;3.60;;;3.30;;
22388;SDS011;11362;48.102;11.620;2023-02-15T15:58:48;6.50;;;3.87;;
22388;SDS011;11362;48.102;11.620;2023-02-15T16:01:28;2.63;;;2.43;;
22388;SDS011;11362;48.102;11.620;2023-02-15T16:03:56;2.50;;;2.40;;
22388;SDS011;11362;48.102;11.620;2023-02-15T16:06:30;8.20;;;2.87;;
22388;SDS011;11362;48.102;11.620;2023-02-15T16:08:56;5.90;;;3.00;;
22388;SDS011;11362;48.102;11.620;2023-02-15T16:11:22;9.60;;;3.00;;
22388;SDS011;11362;48.102;11.620;2023-02-15T16:13:50;8.37;;;2.73;;
22388;SDS011;11362;48.102;11.620;2023-02-15T16:16:20;8.77;;;2.93;;
22388;SDS011;11362;48.102;11.620;2023-02-15T16:18:48;11.67;;;3.47;;
22388;SDS011;11362;48.102;11.620;2023-02-15T16:21:16;6.33;;;2.93;;
22388;SDS011;11362;48.102;11.620;2023-02-15T16:26:58;10.43;;;2.97;;
22388;SDS011;11362;48.102;11.620;2023-02-15T16:29:33;7.03;;;2.70;;
22388;SDS011;11362;48.102;11.620;2023-02-15T16:34:53;103.17;;;51.47;;
22388;SDS011;11362;48.102;11.620;2023-02-15T16:37:21;119.53;;;64.60;;
22388;SDS011;11362;48.102;11.620;2023-02-15T16:39:48;168.70;;;107.47;;
22388;SDS011;11362;48.102;11.620;2023-02-15T16:42:14;169.27;;;104.53;;
22388;SDS011;11362;48.102;11.620;2023-02-15T16:44:40;146.37;;;98.63;;
22388;SDS011;11362;48.102;11.620;2023-02-15T16:47:15;149.90;;;93.13;;
22388;SDS011;11362;48.102;11.620;2023-02-15T16:49:46;141.10;;;88.67;;
22388;SDS011;11362;48.102;11.620;2023-02-15T16:52:23;126.90;;;86.07;;
22388;SDS011;11362;48.102;11.620;2023-02-15T16:54:52;124.40;;;81.90;;
22388;SDS011;11362;48.102;11.620;2023-02-15T16:57:21;109.47;;;69.40;;
22388;SDS011;11362;48.102;11.620;2023-02-15T16:59:51;86.57;;;52.73;;
22388;SDS011;11362;48.102;11.620;2023-02-15T17:02:28;66.47;;;45.00;;
22388;SDS011;11362;48.102;11.620;2023-02-15T17:07:33;67.70;;;41.07;;
22388;SDS011;11362;48.102;11.620;2023-02-15T17:10:16;71.37;;;39.77;;